Time;durP1;ratioP1;P1;durP2;ratioP2;P2;SDS_P1;SDS_P2;PMS_P1;PMS_P2;Temp;Humidity;BMP_temperature;BMP_pressure;BME280_temperature;BME280_humidity;BME280_pressure;Samples;Min_cycle;Max_cycle;Signal;HPM_P1;HPM_P2
2023/03/09 00:04:28;;;;;;;8.55;5.25;;;1.30;99.90;;;;;;25753073;22;20023;-41
2023/03/09 00:14:29;;;;;;;10.48;6.03;;;1.40;99.90;;;;;;25765503;23;20026;-41
2023/03/09 00:24:30;;;;;;;12.23;5.45;;;1.40;99.90;;;;;;25770681;23;20423;-40
2023/03/09 00:34:31;;;;;;;12.65;5.45;;;1.30;99.90;;;;;;25763958;23;20402;-41
2023/03/09 00:44:32;;;;;;;8.23;5.03;;;1.50;99.90;;;;;;25770469;23;20031;-41
2023/03/09 00:54:34;;;;;;;9.73;5.03;;;1.40;99.90;;;;;;25774051;23;20016;-41
2023/03/09 01:04:35;;;;;;;5.68;3.60;;;1.40;99.90;;;;;;25770617;23;20022;-41
2023/03/09 01:14:36;;;;;;;9.43;4.43;;;1.40;99.90;;;;;;25770423;23;20016;-41
2023/03/09 01:24:37;;;;;;;7.88;4.72;;;1.40;99.90;;;;;;25774598;23;20123;-41
2023/03/09 01:34:38;;;;;;;8.43;3.80;;;1.50;99.90;;;;;;25769532;23;20111;-41
2023/03/09 01:44:39;;;;;;;8.82;4.22;;;1.50;99.90;;;;;;25774631;23;20429;-41
2023/03/09 01:54:42;;;;;;;8.02;3.95;;;1.50;99.90;;;;;;25770689;22;20030;-41
2023/03/09 02:04:52;;;;;;;8.63;4.30;;;1.50;99.90;;;;;;25770310;23;20012;-41
2023/03/09 02:14:53;;;;;;;7.18;4.55;;;1.60;99.90;;;;;;25765403;23;20055;-41
2023/03/09 02:25:02;;;;;;;7.47;4.45;;;1.60;99.90;;;;;;25762396;22;20031;-41
2023/03/09 02:35:09;;;;;;;6.35;3.78;;;1.60;99.90;;;;;;25763687;23;20028;-41
2023/03/09 02:45:14;;;;;;;6.40;3.73;;;1.60;99.90;;;;;;25758029;23;21341;-41
2023/03/09 02:55:15;;;;;;;7.93;3.72;;;1.70;99.90;;;;;;25768606;23;20428;-41
2023/03/09 03:05:16;;;;;;;4.85;3.88;;;1.60;99.90;;;;;;25759930;23;20020;-41
2023/03/09 03:15:17;;;;;;;8.35;3.45;;;1.50;99.90;;;;;;25767232;23;20018;-41
2023/03/09 03:25:18;;;;;;;6.30;3.17;;;1.50;99.90;;;;;;25771121;22;20004;-42
2023/03/09 03:35:20;;;;;;;7.05;3.60;;;1.40;99.90;;;;;;25757936;22;20156;-41
2023/03/09 03:45:21;;;;;;;8.15;3.88;;;1.50;99.90;;;;;;25758151;23;20020;-41
2023/03/09 03:55:22;;;;;;;14.65;4.97;;;1.50;99.90;;;;;;25766972;23;20012;-41
2023/03/09 04:05:23;;;;;;;8.85;4.40;;;1.50;99.90;;;;;;25765039;23;20519;-41
2023/03/09 04:15:24;;;;;;;8.20;3.58;;;1.50;99.90;;;;;;25766038;23;20016;-41
2023/03/09 04:25:25;;;;;;;6.20;3.53;;;1.50;99.90;;;;;;25771300;22;20022;-41
2023/03/09 04:35:27;;;;;;;7.40;4.35;;;1.50;99.90;;;;;;25767668;23;20403;-41
2023/03/09 04:45:28;;;;;;;7.97;4.72;;;1.50;99.90;;;;;;25774104;23;20024;-41
2023/03/09 04:55:29;;;;;;;8.60;4.38;;;1.50;99.90;;;;;;25763760;23;20016;-42
2023/03/09 05:05:30;;;;;;;11.30;5.45;;;1.50;99.90;;;;;;25761925;23;20020;-41
2023/03/09 05:15:31;;;;;;;7.63;4.38;;;1.50;99.90;;;;;;25766235;23;20822;-41
2023/03/09 05:25:32;;;;;;;8.02;4.63;;;1.50;99.90;;;;;;25769962;23;20540;-41
2023/03/09 05:35:33;;;;;;;8.95;5.43;;;1.50;99.90;;;;;;25766380;23;20023;-41
2023/03/09 05:45:34;;;;;;;10.73;5.72;;;1.50;99.90;;;;;;25771328;23;20018;-41
2023/03/09 05:55:35;;;;;;;16.23;6.13;;;1.50;99.90;;;;;;25773487;23;20450;-41
2023/03/09 06:05:36;;;;;;;10.30;7.50;;;1.50;99.90;;;;;;25767359;22;20362;-41
2023/03/09 06:15:37;;;;;;;13.98;7.40;;;1.60;99.90;;;;;;25766865;23;20028;-41
2023/03/09 06:25:39;;;;;;;11.73;6.60;;;1.60;99.90;;;;;;25766369;23;20020;-41
2023/03/09 06:35:41;;;;;;;11.55;7.35;;;1.50;99.90;;;;;;25755833;23;20262;-41
2023/03/09 06:45:45;;;;;;;12.43;7.68;;;1.70;99.90;;;;;;25769291;23;20019;-41
2023/03/09 06:55:46;;;;;;;11.18;6.55;;;1.60;99.90;;;;;;25768431;23;20016;-41
2023/03/09 07:05:47;;;;;;;16.20;6.97;;;1.60;99.90;;;;;;25734540;23;20589;-41
2023/03/09 07:15:48;;;;;;;10.13;5.82;;;1.70;99.90;;;;;;25746963;23;20008;-41
2023/03/09 07:25:49;;;;;;;13.30;6.05;;;1.80;99.90;;;;;;25781289;23;20016;-41
2023/03/09 07:35:50;;;;;;;11.88;6.47;;;1.90;99.90;;;;;;25752275;23;20594;-41
2023/03/09 07:45:51;;;;;;;10.82;6.88;;;1.90;99.90;;;;;;25772857;23;20318;-41
2023/03/09 07:55:56;;;;;;;13.18;6.00;;;2.00;99.90;;;;;;25770546;23;20046;-41
2023/03/09 08:05:59;;;;;;;13.52;6.70;;;2.00;99.90;;;;;;25785140;23;20023;-41
2023/03/09 08:16:04;;;;;;;13.23;6.38;;;2.20;99.90;;;;;;25763590;23;20008;-41
2023/03/09 08:26:15;;;;;;;9.55;6.55;;;2.20;99.90;;;;;;25777316;23;20016;-41
2023/03/09 08:36:18;;;;;;;14.60;7.00;;;2.30;99.90;;;;;;25778662;23;20493;-41
2023/03/09 08:46:19;;;;;;;7.72;4.32;;;2.30;99.90;;;;;;25782360;23;20012;-41
2023/03/09 08:56:21;;;;;;;10.73;6.72;;;2.30;99.90;;;;;;25780342;22;20012;-41
2023/03/09 09:06:22;;;;;;;11.30;6.40;;;2.40;99.90;;;;;;25758350;22;20447;-40
2023/03/09 09:16:23;;;;;;;12.57;5.60;;;2.40;99.90;;;;;;25761577;23;20022;-41
2023/03/09 09:26:24;;;;;;;13.20;5.45;;;2.50;99.90;;;;;;25760087;23;20738;-41
2023/03/09 09:36:26;;;;;;;9.32;5.80;;;2.50;99.90;;;;;;25765563;23;20028;-41
2023/03/09 09:46:30;;;;;;;11.02;6.85;;;2.50;99.90;;;;;;25770076;22;20016;-41
2023/03/09 09:56:55;;;;;;;10.10;5.57;;;2.60;99.90;;;;;;25769297;23;20027;-41
2023/03/09 10:07:03;;;;;;;12.85;7.60;;;2.70;94.30;;;;;;25776804;23;20314;-41
2023/03/09 10:17:21;;;;;;;14.40;8.40;;;2.70;91.70;;;;;;25767360;23;20034;-41
2023/03/09 10:27:31;;;;;;;11.93;6.65;;;2.80;81.60;;;;;;25759573;23;20318;-41
2023/03/09 10:37:36;;;;;;;11.32;5.85;;;3.00;72.80;;;;;;25765981;23;20020;-41
2023/03/09 10:47:57;;;;;;;8.90;6.10;;;3.00;62.80;;;;;;25770783;23;20020;-41
2023/03/09 10:58:21;;;;;;;9.63;6.57;;;3.20;57.40;;;;;;25752960;23;20095;-41
2023/03/09 11:08:25;;;;;;;15.63;6.60;;;3.30;55.30;;;;;;25766297;23;20111;-41
2023/03/09 11:18:29;;;;;;;9.25;6.32;;;3.20;51.50;;;;;;25778238;23;20023;-41
2023/03/09 11:28:54;;;;;;;8.45;4.95;;;3.20;52.70;;;;;;25783930;23;20102;-41
2023/03/09 11:38:56;;;;;;;10.00;6.38;;;3.30;59.50;;;;;;25767298;23;20031;-42
2023/03/09 11:49:07;;;;;;;16.52;8.30;;;3.30;63.50;;;;;;25771956;22;20026;-42
2023/03/09 11:59:14;;;;;;;10.50;5.32;;;3.40;64.00;;;;;;25780816;23;20398;-41
2023/03/09 12:09:23;;;;;;;11.35;8.13;;;3.20;62.20;;;;;;25784093;22;20587;-41
2023/03/09 12:19:28;;;;;;;14.02;7.00;;;3.20;67.90;;;;;;25786510;22;20079;-41
2023/03/09 12:29:47;;;;;;;11.57;7.18;;;3.20;79.40;;;;;;25760392;23;20476;-41
2023/03/09 12:40:04;;;;;;;15.52;7.00;;;3.20;91.90;;;;;;25785480;22;20561;-41
2023/03/09 12:50:20;;;;;;;12.73;6.18;;;3.10;99.90;;;;;;25796206;22;20527;-41
2023/03/09 13:00:25;;;;;;;10.98;7.40;;;3.00;99.90;;;;;;25784024;22;20840;-41
2023/03/09 13:10:36;;;;;;;11.20;5.10;;;2.70;99.90;;;;;;25798414;22;20012;-41
2023/03/09 13:20:42;;;;;;;7.82;6.15;;;2.70;99.90;;;;;;25793423;23;20422;-42
2023/03/09 13:30:45;;;;;;;9.73;6.80;;;2.70;99.90;;;;;;25768709;23;20012;-41
2023/03/09 13:40:50;;;;;;;12.07;6.32;;;2.70;99.90;;;;;;25794355;23;20397;-41
2023/03/09 13:50:51;;;;;;;20.92;7.40;;;2.70;99.90;;;;;;25791741;22;20095;-41
2023/03/09 14:01:00;;;;;;;15.18;7.38;;;2.70;99.90;;;;;;25791518;23;20457;-41
2023/03/09 14:11:07;;;;;;;10.52;5.63;;;2.50;99.90;;;;;;25787869;23;20090;-42
2023/03/09 14:21:22;;;;;;;16.83;6.45;;;2.40;99.90;;;;;;25787248;23;20464;-42
2023/03/09 14:31:23;;;;;;;10.15;5.47;;;2.40;99.90;;;;;;25791334;23;20080;-42
2023/03/09 14:41:29;;;;;;;9.10;5.47;;;2.50;99.90;;;;;;25785599;22;20149;-42
2023/03/09 14:51:36;;;;;;;11.07;5.03;;;2.50;99.90;;;;;;25790997;23;20091;-41
2023/03/09 15:01:42;;;;;;;8.15;3.67;;;2.60;99.90;;;;;;25788017;23;20071;-41
2023/03/09 15:11:44;;;;;;;7.75;4.82;;;2.70;99.90;;;;;;25782075;23;20510;-41
2023/03/09 15:21:45;;;;;;;9.75;4.10;;;2.70;99.90;;;;;;25776644;23;20020;-41
2023/03/09 15:31:46;;;;;;;4.80;3.03;;;2.80;99.90;;;;;;25785645;23;20082;-41
2023/03/09 15:41:48;;;;;;;8.30;4.50;;;2.90;99.90;;;;;;25779143;23;21590;-41
2023/03/09 15:51:50;;;;;;;7.05;3.83;;;2.90;99.90;;;;;;25786416;23;20115;-41
2023/03/09 16:01:51;;;;;;;9.60;3.83;;;2.90;99.90;;;;;;25772358;23;20020;-40
2023/03/09 16:11:52;;;;;;;5.55;3.13;;;2.80;99.90;;;;;;25742151;23;20012;-41
2023/03/09 16:21:53;;;;;;;4.93;3.15;;;2.80;99.90;;;;;;25768339;23;20350;-41
2023/03/09 16:31:54;;;;;;;5.90;3.35;;;2.80;99.90;;;;;;25763029;23;20012;-41
2023/03/09 16:41:55;;;;;;;3.47;2.33;;;2.80;99.90;;;;;;25776784;23;20331;-41
2023/03/09 16:51:56;;;;;;;5.07;2.95;;;2.80;99.90;;;;;;25761339;22;20314;-41
2023/03/09 17:01:57;;;;;;;5.18;3.85;;;2.80;99.90;;;;;;25765083;23;20016;-41
2023/03/09 17:11:58;;;;;;;8.57;4.10;;;2.80;99.90;;;;;;25760560;23;20548;-41
2023/03/09 17:21:59;;;;;;;6.75;4.00;;;2.80;99.90;;;;;;25735921;23;20016;-41
2023/03/09 17:32:03;;;;;;;7.10;3.05;;;2.80;99.90;;;;;;25764940;23;20017;-41
2023/03/09 17:42:04;;;;;;;7.60;3.63;;;2.70;99.90;;;;;;25745905;23;20027;-41
2023/03/09 17:52:06;;;;;;;3.60;1.90;;;2.70;99.90;;;;;;25751818;23;20477;-41
2023/03/09 18:02:10;;;;;;;5.55;2.85;;;2.70;99.90;;;;;;25786537;23;20026;-40
2023/03/09 18:12:11;;;;;;;7.13;3.30;;;2.70;99.90;;;;;;25791494;23;20016;-41
2023/03/09 18:22:13;;;;;;;3.35;2.17;;;2.70;99.90;;;;;;25769863;23;20020;-40
2023/03/09 18:32:14;;;;;;;6.38;3.53;;;2.70;99.90;;;;;;25769074;22;20008;-40
2023/03/09 18:42:15;;;;;;;4.30;2.60;;;2.60;99.90;;;;;;25761142;23;20024;-40
2023/03/09 18:52:16;;;;;;;7.97;4.07;;;2.60;99.90;;;;;;25758681;22;20136;-40
2023/03/09 19:02:17;;;;;;;6.35;2.65;;;2.50;99.90;;;;;;25747717;23;20350;-40
2023/03/09 19:12:19;;;;;;;6.32;3.33;;;2.50;99.90;;;;;;25756877;23;20754;-40
2023/03/09 19:22:21;;;;;;;4.95;2.60;;;2.50;99.90;;;;;;25754597;23;20026;-41
2023/03/09 19:32:22;;;;;;;6.78;3.58;;;2.60;99.90;;;;;;25758850;23;20064;-40
2023/03/09 19:42:23;;;;;;;7.18;3.47;;;2.60;99.90;;;;;;25760632;23;20450;-40
2023/03/09 19:52:24;;;;;;;8.20;3.50;;;2.60;99.90;;;;;;25755714;23;20171;-41
2023/03/09 20:02:26;;;;;;;4.63;2.45;;;2.70;99.90;;;;;;25755381;23;20030;-41
2023/03/09 20:12:27;;;;;;;4.00;2.10;;;2.70;99.90;;;;;;25755257;23;20024;-40
2023/03/09 20:22:28;;;;;;;5.93;2.72;;;2.60;99.90;;;;;;25754257;23;20013;-40
2023/03/09 20:32:29;;;;;;;5.75;3.47;;;2.60;99.90;;;;;;25753268;23;20023;-40
2023/03/09 20:42:30;;;;;;;6.15;2.97;;;2.60;99.90;;;;;;25759831;22;20484;-40
2023/03/09 20:52:33;;;;;;;8.27;3.72;;;2.60;99.90;;;;;;25755979;22;20504;-40
2023/03/09 21:02:34;;;;;;;5.25;2.85;;;2.60;99.90;;;;;;25757783;22;20012;-40
2023/03/09 21:12:36;;;;;;;6.70;3.38;;;2.70;99.90;;;;;;25746963;22;20100;-40
2023/03/09 21:22:37;;;;;;;4.32;2.67;;;2.60;99.90;;;;;;25746039;22;20022;-40
2023/03/09 21:32:39;;;;;;;4.35;1.92;;;2.70;99.90;;;;;;25758054;23;20469;-40
2023/03/09 21:42:41;;;;;;;7.22;2.63;;;2.80;99.90;;;;;;25762402;23;20051;-40
2023/03/09 21:52:42;;;;;;;4.63;2.80;;;2.70;99.90;;;;;;25771432;23;20016;-40
2023/03/09 22:02:45;;;;;;;4.82;3.05;;;2.70;99.90;;;;;;25761431;22;20471;-40
2023/03/09 22:12:46;;;;;;;4.18;2.45;;;2.80;99.90;;;;;;25739608;23;20022;-41
2023/03/09 22:22:47;;;;;;;5.40;3.60;;;2.70;99.90;;;;;;25766886;23;20028;-40
2023/03/09 22:32:48;;;;;;;6.07;3.03;;;2.70;99.90;;;;;;25761283;23;20036;-40
2023/03/09 22:42:49;;;;;;;6.70;3.92;;;2.70;99.90;;;;;;25757338;22;20478;-40
2023/03/09 22:52:50;;;;;;;5.90;2.83;;;2.70;99.90;;;;;;25753007;22;20030;-40
2023/03/09 23:02:51;;;;;;;5.75;3.25;;;2.80;99.90;;;;;;25746142;22;20027;-40
2023/03/09 23:12:55;;;;;;;6.05;3.63;;;2.90;99.90;;;;;;25758181;22;20014;-40
2023/03/09 23:22:56;;;;;;;5.95;3.03;;;2.90;99.90;;;;;;25753846;23;20087;-40
2023/03/09 23:32:57;;;;;;;5.28;2.88;;;2.80;99.90;;;;;;25754487;23;20318;-40
2023/03/09 23:42:58;;;;;;;3.55;2.22;;;2.80;99.90;;;;;;25745207;23;20020;-40
2023/03/09 23:52:59;;;;;;;5.35;2.67;;;2.80;99.90;;;;;;25750165;23;20022;-41
